createdAt,value
2019-01-23T00:00:54.653Z,94.20
2019-01-23T00:03:24.089Z,94.20
2019-01-23T00:05:53.633Z,94.20
2019-01-23T00:08:23.109Z,94.20
2019-01-23T00:10:52.619Z,94.20
2019-01-23T00:13:22.107Z,94.20
2019-01-23T00:15:51.563Z,94.20
2019-01-23T00:18:21.049Z,94.20
2019-01-23T00:20:50.505Z,94.20
2019-01-23T00:23:20.065Z,94.10
2019-01-23T00:25:49.599Z,94.10
2019-01-23T00:28:19.069Z,94.10
2019-01-23T00:30:48.477Z,94.00
2019-01-23T00:33:17.995Z,94.10
2019-01-23T00:35:47.555Z,94.10
2019-01-23T00:38:17.076Z,94.10
2019-01-23T00:40:46.679Z,94.00
2019-01-23T00:43:16.127Z,94.00
2019-01-23T00:45:45.621Z,93.90
2019-01-23T00:48:15.079Z,93.90
2019-01-23T00:50:44.467Z,93.90
2019-01-23T00:53:13.928Z,93.90
2019-01-23T00:55:43.333Z,93.80
2019-01-23T00:58:12.822Z,93.80
2019-01-23T01:00:42.669Z,93.80
2019-01-23T01:03:12.281Z,93.80
2019-01-23T01:05:41.765Z,93.80
2019-01-23T01:08:11.247Z,93.80
2019-01-23T01:10:40.743Z,93.70
2019-01-23T01:13:10.287Z,93.70
2019-01-23T01:15:39.871Z,93.70
2019-01-23T01:18:09.436Z,93.70
2019-01-23T01:20:39.061Z,93.70
2019-01-23T01:23:08.515Z,93.70
2019-01-23T01:25:37.978Z,93.70
2019-01-23T01:28:07.401Z,93.70
2019-01-23T01:30:36.943Z,93.70
2019-01-23T01:33:06.535Z,93.70
2019-01-23T01:35:36.012Z,93.80
2019-01-23T01:38:05.708Z,93.80
2019-01-23T01:40:35.165Z,93.80
2019-01-23T01:43:04.881Z,93.80
2019-01-23T01:45:34.355Z,93.80
2019-01-23T01:48:03.826Z,93.80
2019-01-23T01:50:33.296Z,93.80
2019-01-23T01:53:02.788Z,93.80
2019-01-23T01:55:32.274Z,93.80
2019-01-23T01:58:01.742Z,93.80
2019-01-23T02:00:31.312Z,93.80
2019-01-23T02:03:00.822Z,93.80
2019-01-23T02:05:30.299Z,93.70
2019-01-23T02:07:59.840Z,93.70
2019-01-23T02:10:29.347Z,94.00
2019-01-23T02:12:58.752Z,93.80
2019-01-23T02:15:28.248Z,93.80
2019-01-23T02:17:57.721Z,93.90
2019-01-23T02:20:27.646Z,93.90
2019-01-23T02:22:57.137Z,93.90
2019-01-23T02:25:26.600Z,93.90
2019-01-23T02:27:56.164Z,94.00
2019-01-23T02:30:25.806Z,94.00
2019-01-23T02:32:55.173Z,94.00
2019-01-23T02:35:24.590Z,94.00
2019-01-23T02:37:54.088Z,94.10
2019-01-23T02:40:23.668Z,94.10
2019-01-23T02:42:53.576Z,94.10
2019-01-23T02:45:23.144Z,94.10
2019-01-23T02:47:53.438Z,94.10
2019-01-23T02:50:22.967Z,94.20
2019-01-23T02:52:52.447Z,94.20
2019-01-23T02:55:21.879Z,94.20
2019-01-23T02:57:51.332Z,94.10
2019-01-23T03:00:20.914Z,94.20
2019-01-23T03:02:50.562Z,94.20
2019-01-23T03:05:20.317Z,94.20
2019-01-23T03:07:49.791Z,94.20
2019-01-23T03:10:20.136Z,94.30
2019-01-23T03:12:49.781Z,94.30
2019-01-23T03:15:19.709Z,94.20
2019-01-23T03:17:49.196Z,94.30
2019-01-23T03:20:19.122Z,94.30
2019-01-23T03:22:48.663Z,94.30
2019-01-23T03:25:18.459Z,94.30
2019-01-23T03:27:47.993Z,94.40
2019-01-23T03:30:21.737Z,94.30
2019-01-23T03:32:51.263Z,94.40
2019-01-23T03:35:22.032Z,94.40
2019-01-23T03:37:51.467Z,94.40
2019-01-23T03:40:21.541Z,94.40
2019-01-23T03:42:51.111Z,94.30
2019-01-23T03:45:20.669Z,94.40
2019-01-23T03:47:50.144Z,94.30
2019-01-23T03:50:20.709Z,94.40
2019-01-23T03:52:50.288Z,94.30
2019-01-23T03:55:19.906Z,94.40
2019-01-23T03:57:49.614Z,94.30
2019-01-23T04:00:20.635Z,94.30
2019-01-23T04:02:52.762Z,94.30
2019-01-23T04:05:22.461Z,94.30
2019-01-23T04:07:51.903Z,94.20
2019-01-23T04:10:21.401Z,94.20
2019-01-23T04:12:50.886Z,94.10
2019-01-23T04:15:20.364Z,94.00
2019-01-23T04:17:49.858Z,94.00
2019-01-23T04:20:21.138Z,94.00
2019-01-23T04:22:50.579Z,94.00
2019-01-23T04:25:20.197Z,94.00
2019-01-23T04:27:49.644Z,94.10
2019-01-23T04:30:21.452Z,94.10
2019-01-23T04:32:51.124Z,94.00
2019-01-23T04:35:20.762Z,94.00
2019-01-23T04:37:50.216Z,94.00
2019-01-23T04:40:19.883Z,94.10
2019-01-23T04:42:49.328Z,94.10
2019-01-23T04:45:18.906Z,94.00
2019-01-23T04:47:48.378Z,94.00
2019-01-23T04:50:18.534Z,94.00
2019-01-23T04:53:06.314Z,94.00
2019-01-23T04:55:37.142Z,93.90
2019-01-23T04:58:06.574Z,93.90
2019-01-23T05:00:36.103Z,94.00
2019-01-23T05:03:05.558Z,94.00
2019-01-23T05:05:34.980Z,94.00
2019-01-23T05:08:04.429Z,94.00
2019-01-23T05:10:33.938Z,94.00
2019-01-23T05:13:03.350Z,94.10
2019-01-23T05:15:32.936Z,94.10
2019-01-23T05:18:02.479Z,94.10
2019-01-23T05:20:31.888Z,94.20
2019-01-23T05:23:01.500Z,94.20
2019-01-23T05:25:31.079Z,94.20
2019-01-23T05:28:00.617Z,94.10
2019-01-23T05:30:30.103Z,94.10
2019-01-23T05:32:59.533Z,94.10
2019-01-23T05:35:28.923Z,94.10
2019-01-23T05:37:58.362Z,94.00
2019-01-23T05:40:27.948Z,94.00
2019-01-23T05:42:57.492Z,94.00
2019-01-23T05:45:26.977Z,94.00
2019-01-23T05:47:56.447Z,94.00
2019-01-23T05:50:25.894Z,94.00
2019-01-23T05:52:55.266Z,94.00
2019-01-23T05:55:24.827Z,94.00
2019-01-23T05:57:54.381Z,94.00
2019-01-23T06:00:24.029Z,94.00
2019-01-23T06:02:53.646Z,94.10
2019-01-23T06:05:23.239Z,94.10
2019-01-23T06:07:52.640Z,94.10
2019-01-23T06:10:22.110Z,94.40
2019-01-23T06:12:51.560Z,94.10
2019-01-23T06:15:21.076Z,94.10
2019-01-23T06:17:50.522Z,94.10
2019-01-23T06:20:21.306Z,94.10
2019-01-23T06:22:50.774Z,94.00
2019-01-23T06:25:20.343Z,94.10
2019-01-23T06:27:49.846Z,94.10
2019-01-23T06:30:24.548Z,94.10
2019-01-23T06:32:54.111Z,94.20
2019-01-23T06:35:23.550Z,94.20
2019-01-23T06:37:53.060Z,94.20
2019-01-23T06:40:22.454Z,94.10
2019-01-23T06:42:51.956Z,94.10
2019-01-23T06:45:21.644Z,94.20
2019-01-23T06:47:51.260Z,94.10
2019-01-23T06:50:21.964Z,94.10
2019-01-23T06:52:51.430Z,94.00
2019-01-23T06:55:21.089Z,94.10
2019-01-23T06:57:50.552Z,93.80
2019-01-23T07:00:22.076Z,93.90
2019-01-23T07:02:51.702Z,94.00
2019-01-23T07:05:21.468Z,94.00
2019-01-23T07:07:50.949Z,93.90
2019-01-23T07:10:22.866Z,93.80
2019-01-23T07:12:52.339Z,93.70
2019-01-23T07:15:21.714Z,93.80
2019-01-23T07:17:51.229Z,93.80
2019-01-23T07:20:22.522Z,93.80
2019-01-23T07:22:51.936Z,93.90
2019-01-23T07:25:21.851Z,93.90
2019-01-23T07:27:51.455Z,93.90
2019-01-23T07:30:26.559Z,93.90
2019-01-23T07:32:56.011Z,93.80
2019-01-23T07:35:25.602Z,93.80
2019-01-23T07:37:55.186Z,93.80
2019-01-23T07:40:24.663Z,93.90
2019-01-23T07:42:54.034Z,93.80
2019-01-23T07:45:26.022Z,93.90
2019-01-23T07:47:55.500Z,93.90
2019-01-23T07:50:25.116Z,93.90
2019-01-23T07:52:54.726Z,93.80
2019-01-23T07:55:24.334Z,93.80
2019-01-23T07:57:53.885Z,93.90
2019-01-23T08:00:31.241Z,93.80
2019-01-23T08:02:57.023Z,93.80
2019-01-23T08:05:26.911Z,93.80
2019-01-23T08:07:56.347Z,93.90
2019-01-23T08:10:25.714Z,93.90
2019-01-23T08:12:55.214Z,93.90
2019-01-23T08:15:27.366Z,94.00
2019-01-23T08:17:56.913Z,94.00
2019-01-23T08:20:28.812Z,94.00
2019-01-23T08:22:58.753Z,93.90
2019-01-23T08:25:28.237Z,93.70
2019-01-23T08:27:57.869Z,93.90
2019-01-23T08:30:27.548Z,94.00
2019-01-23T08:32:56.988Z,93.80
2019-01-23T08:35:26.794Z,93.90
2019-01-23T08:37:56.503Z,94.00
2019-01-23T08:40:26.014Z,94.00
2019-01-23T08:42:55.533Z,93.80
2019-01-23T08:45:25.081Z,93.80
2019-01-23T08:47:54.582Z,93.80
2019-01-23T08:50:32.906Z,94.00
2019-01-23T08:53:02.384Z,94.00
2019-01-23T08:55:31.836Z,94.00
2019-01-23T08:58:01.395Z,93.80
2019-01-23T09:00:30.868Z,93.70
2019-01-23T09:03:00.413Z,93.90
2019-01-23T09:05:29.906Z,93.90
2019-01-23T09:07:59.467Z,93.80
2019-01-23T09:10:30.079Z,93.90
2019-01-23T09:12:59.799Z,93.90
2019-01-23T09:15:29.287Z,94.30
2019-01-23T09:17:58.871Z,94.00
2019-01-23T09:20:28.405Z,94.10
2019-01-23T09:22:57.922Z,94.00
2019-01-23T09:25:28.059Z,93.80
2019-01-23T09:27:57.619Z,93.90
2019-01-23T09:30:39.613Z,94.00
2019-01-23T09:33:32.791Z,93.90
2019-01-23T09:36:08.033Z,93.90
2019-01-23T09:39:13.746Z,94.00
2019-01-23T09:42:03.825Z,94.10
2019-01-23T09:45:09.083Z,94.20
2019-01-23T09:47:41.691Z,94.30
2019-01-23T09:50:14.221Z,94.30
2019-01-23T09:52:55.671Z,94.50
2019-01-23T09:55:25.125Z,94.40
2019-01-23T09:57:54.821Z,94.40
2019-01-23T10:00:31.964Z,94.40
2019-01-23T10:02:59.938Z,94.50
2019-01-23T10:05:29.469Z,94.40
2019-01-23T10:07:58.955Z,94.40
2019-01-23T10:10:28.463Z,94.50
2019-01-23T10:12:57.955Z,94.40
2019-01-23T10:15:33.180Z,94.20
2019-01-23T10:18:02.745Z,94.30
2019-01-23T10:20:32.209Z,94.40
2019-01-23T10:23:01.747Z,94.50
2019-01-23T10:25:31.342Z,94.50
2019-01-23T10:28:00.935Z,94.50
2019-01-23T10:30:30.593Z,94.60
2019-01-23T10:33:00.063Z,94.40
2019-01-23T10:35:29.544Z,94.40
2019-01-23T10:37:59.155Z,94.40
2019-01-23T10:40:28.627Z,94.30
2019-01-23T10:42:58.093Z,94.30
2019-01-23T10:45:27.678Z,94.60
2019-01-23T10:47:57.453Z,94.50
2019-01-23T10:50:27.747Z,94.40
2019-01-23T10:52:57.231Z,94.20
2019-01-23T10:55:26.863Z,94.50
2019-01-23T10:57:56.446Z,94.60
2019-01-23T11:00:26.171Z,94.50
2019-01-23T11:02:55.635Z,94.50
2019-01-23T11:05:26.507Z,94.40
2019-01-23T11:07:56.097Z,94.60
2019-01-23T11:10:25.804Z,94.80
2019-01-23T11:12:55.489Z,94.70
2019-01-23T11:15:25.063Z,94.60
2019-01-23T11:17:54.901Z,94.60
2019-01-23T11:20:24.505Z,94.70
2019-01-23T11:22:53.971Z,94.30
2019-01-23T11:25:23.528Z,94.70
2019-01-23T11:27:53.032Z,94.80
2019-01-23T11:30:25.108Z,94.70
2019-01-23T11:32:54.607Z,94.80
2019-01-23T11:35:24.465Z,94.30
2019-01-23T11:37:54.125Z,94.60
2019-01-23T11:40:29.273Z,94.70
2019-01-23T11:42:58.843Z,94.90
2019-01-23T11:45:28.373Z,95.00
2019-01-23T11:47:58.041Z,94.70
2019-01-23T11:50:27.518Z,94.60
2019-01-23T11:52:56.935Z,94.40
2019-01-23T11:55:26.326Z,93.80
2019-01-23T11:57:55.895Z,93.30
2019-01-23T12:00:27.469Z,93.90
2019-01-23T12:02:56.862Z,93.60
2019-01-23T12:05:26.465Z,93.90
2019-01-23T12:07:56.121Z,93.70
2019-01-23T12:10:25.722Z,94.30
2019-01-23T12:12:55.174Z,94.40
2019-01-23T12:15:25.318Z,94.40
2019-01-23T12:17:54.785Z,94.30
2019-01-23T12:20:24.397Z,94.00
2019-01-23T12:22:54.130Z,94.30
2019-01-23T12:25:23.643Z,94.00
2019-01-23T12:27:53.163Z,93.90
2019-01-23T12:30:25.763Z,93.90
2019-01-23T12:32:55.410Z,93.90
2019-01-23T12:35:24.981Z,94.30
2019-01-23T12:37:54.510Z,93.90
2019-01-23T12:40:24.155Z,93.90
2019-01-23T12:42:53.868Z,93.90
2019-01-23T12:45:28.201Z,93.60
2019-01-23T12:47:57.712Z,93.60
2019-01-23T12:50:29.969Z,93.50
2019-01-23T12:52:59.683Z,93.80
2019-01-23T12:55:29.201Z,93.80
2019-01-23T12:57:58.783Z,94.00
2019-01-23T13:00:31.681Z,94.10
2019-01-23T13:03:01.654Z,94.30
2019-01-23T13:05:31.347Z,94.20
2019-01-23T13:08:00.815Z,94.20
2019-01-23T13:10:30.792Z,93.70
2019-01-23T13:13:00.141Z,93.80
2019-01-23T13:15:29.790Z,93.80
2019-01-23T13:17:59.544Z,94.00
2019-01-23T13:20:29.203Z,93.70
2019-01-23T13:23:00.285Z,93.50
2019-01-23T13:25:30.112Z,93.70
2019-01-23T13:28:01.271Z,94.10
2019-01-23T13:30:30.833Z,94.10
2019-01-23T13:33:00.603Z,93.80
2019-01-23T13:35:32.767Z,93.60
2019-01-23T13:38:03.069Z,93.80
2019-01-23T13:40:35.280Z,93.90
2019-01-23T13:43:06.591Z,94.10
2019-01-23T13:45:36.227Z,93.80
2019-01-23T13:48:06.869Z,93.90
2019-01-23T13:50:36.328Z,93.50
2019-01-23T13:53:05.950Z,93.80
2019-01-23T13:55:35.725Z,94.00
2019-01-23T13:58:05.556Z,94.00
2019-01-23T14:00:37.361Z,93.70
2019-01-23T14:03:07.287Z,93.50
2019-01-23T14:05:37.090Z,93.40
2019-01-23T14:08:07.542Z,93.30
2019-01-23T14:10:37.093Z,93.50
2019-01-23T14:13:08.376Z,93.50
2019-01-23T14:15:39.820Z,93.20
2019-01-23T14:18:10.148Z,93.60
2019-01-23T14:20:39.602Z,93.70
2019-01-23T14:23:09.110Z,93.70
2019-01-23T14:25:38.630Z,93.60
2019-01-23T14:28:08.180Z,93.50
2019-01-23T14:30:40.093Z,93.50
2019-01-23T14:33:09.656Z,94.00
2019-01-23T14:35:39.684Z,93.50
2019-01-23T14:38:09.203Z,93.70
2019-01-23T14:40:39.014Z,93.90
2019-01-23T14:43:08.565Z,93.90
2019-01-23T14:45:38.116Z,94.10
2019-01-23T14:48:09.258Z,93.90
2019-01-23T14:50:38.708Z,93.60
2019-01-23T14:53:08.171Z,93.70
2019-01-23T14:55:37.575Z,93.40
2019-01-23T14:58:07.112Z,93.50
2019-01-23T15:00:36.710Z,93.60
2019-01-23T15:03:06.282Z,93.60
2019-01-23T15:05:35.904Z,93.50
2019-01-23T15:08:05.524Z,93.40
2019-01-23T15:10:34.980Z,93.70
2019-01-23T15:13:05.006Z,93.80
2019-01-23T15:15:34.634Z,94.10
2019-01-23T15:18:04.390Z,93.70
2019-01-23T15:20:38.505Z,93.90
2019-01-23T15:23:08.023Z,93.90
2019-01-23T15:25:37.462Z,94.00
2019-01-23T15:28:07.136Z,93.80
2019-01-23T15:30:36.620Z,93.60
2019-01-23T15:33:06.202Z,93.70
2019-01-23T15:35:35.944Z,93.80
2019-01-23T15:38:05.619Z,93.70
2019-01-23T15:40:35.672Z,93.90
2019-01-23T15:43:05.308Z,93.90
2019-01-23T15:45:34.877Z,93.80
2019-01-23T15:48:04.584Z,93.80
2019-01-23T15:50:34.076Z,93.80
2019-01-23T15:53:03.490Z,93.80
2019-01-23T15:55:32.914Z,93.90
2019-01-23T15:58:02.314Z,93.80
2019-01-23T16:00:32.830Z,93.80
2019-01-23T16:03:02.442Z,93.80
2019-01-23T16:05:31.936Z,93.80
2019-01-23T16:08:01.406Z,93.70
2019-01-23T16:10:31.019Z,93.90
2019-01-23T16:13:00.560Z,93.90
2019-01-23T16:15:30.576Z,94.00
2019-01-23T16:18:00.073Z,93.80
2019-01-23T16:20:29.623Z,93.90
2019-01-23T16:22:59.288Z,93.90
2019-01-23T16:25:28.779Z,93.90
2019-01-23T16:27:58.438Z,93.70
2019-01-23T16:30:33.606Z,93.70
2019-01-23T16:33:03.006Z,93.90
2019-01-23T16:35:38.553Z,93.80
2019-01-23T16:38:03.898Z,93.70
2019-01-23T16:40:33.407Z,93.80
2019-01-23T16:43:02.970Z,93.90
2019-01-23T16:45:32.440Z,93.80
2019-01-23T16:48:02.114Z,94.00
2019-01-23T16:50:31.780Z,93.90
2019-01-23T16:53:01.318Z,94.00
2019-01-23T16:55:30.832Z,93.90
2019-01-23T16:58:00.346Z,94.00
2019-01-23T17:00:29.986Z,93.80
2019-01-23T17:03:00.032Z,93.80
2019-01-23T17:05:31.397Z,93.90
2019-01-23T17:08:02.606Z,93.80
2019-01-23T17:10:32.178Z,93.80
2019-01-23T17:13:01.676Z,94.10
2019-01-23T17:15:31.239Z,93.80
2019-01-23T17:18:00.784Z,93.90
2019-01-23T17:20:35.858Z,93.80
2019-01-23T17:23:05.770Z,93.90
2019-01-23T17:25:35.224Z,93.70
2019-01-23T17:28:06.550Z,93.80
2019-01-23T17:30:36.156Z,93.80
2019-01-23T17:33:05.845Z,93.80
2019-01-23T17:35:35.306Z,93.80
2019-01-23T17:38:04.918Z,93.70
2019-01-23T17:40:34.343Z,93.70
2019-01-23T17:43:03.944Z,93.70
2019-01-23T17:45:40.303Z,93.80
2019-01-23T17:48:11.579Z,93.60
2019-01-23T17:50:41.466Z,93.70
2019-01-23T17:53:10.994Z,93.80
2019-01-23T17:55:40.661Z,93.70
2019-01-23T17:58:11.292Z,93.80
2019-01-23T18:00:42.535Z,93.80
2019-01-23T18:03:12.032Z,93.90
2019-01-23T18:05:41.510Z,93.70
2019-01-23T18:08:11.059Z,93.80
2019-01-23T18:10:40.651Z,93.80
2019-01-23T18:13:10.227Z,93.70
2019-01-23T18:15:41.242Z,93.70
2019-01-23T18:18:12.611Z,93.70
2019-01-23T18:20:42.171Z,93.80
2019-01-23T18:23:11.654Z,93.80
2019-01-23T18:25:41.182Z,93.80
2019-01-23T18:28:10.706Z,93.70
2019-01-23T18:30:43.300Z,93.70
2019-01-23T18:33:15.842Z,93.80
2019-01-23T18:35:51.220Z,93.80
2019-01-23T18:38:23.799Z,93.80
2019-01-23T18:41:04.950Z,93.80
2019-01-23T18:43:49.280Z,93.70
2019-01-23T18:46:38.377Z,93.80
2019-01-23T18:49:17.011Z,93.70
2019-01-23T18:51:47.203Z,93.80
2019-01-23T18:54:16.763Z,93.70
2019-01-23T18:56:46.276Z,93.90
2019-01-23T18:59:15.752Z,93.70
2019-01-23T19:01:45.175Z,93.80
2019-01-23T19:04:14.686Z,93.80
2019-01-23T19:06:44.129Z,93.80
2019-01-23T19:09:13.553Z,93.90
2019-01-23T19:11:43.046Z,93.80
2019-01-23T19:14:12.541Z,93.90
2019-01-23T19:16:42.021Z,94.00
2019-01-23T19:21:46.843Z,93.90
2019-01-23T19:24:16.299Z,93.90
2019-01-23T19:26:45.852Z,93.90
2019-01-23T19:29:15.402Z,93.90
2019-01-23T19:31:44.937Z,93.90
2019-01-23T19:34:14.408Z,93.80
2019-01-23T19:36:44.824Z,94.00
2019-01-23T19:39:14.404Z,93.90
2019-01-23T19:41:43.908Z,93.80
2019-01-23T19:44:13.454Z,93.70
2019-01-23T19:46:42.932Z,93.80
2019-01-23T19:49:12.525Z,93.80
2019-01-23T19:51:42.066Z,93.80
2019-01-23T19:54:11.445Z,93.80
2019-01-23T19:56:41.014Z,93.80
2019-01-23T19:59:10.513Z,93.90
2019-01-23T20:01:40.102Z,93.80
2019-01-23T20:04:09.504Z,93.80
2019-01-23T20:06:38.974Z,93.80
2019-01-23T20:09:09.823Z,93.70
2019-01-23T20:11:39.420Z,93.80
2019-01-23T20:14:08.920Z,93.70
2019-01-23T20:16:38.381Z,93.80
2019-01-23T20:19:09.102Z,93.70
2019-01-23T20:21:38.671Z,93.70
2019-01-23T20:24:08.220Z,93.70
2019-01-23T20:26:37.790Z,93.80
2019-01-23T20:29:07.517Z,93.80
2019-01-23T20:31:37.015Z,93.80
2019-01-23T20:34:06.527Z,93.80
2019-01-23T20:36:36.057Z,93.80
2019-01-23T20:39:07.961Z,93.80
2019-01-23T20:41:37.495Z,93.80
2019-01-23T20:44:07.026Z,93.80
2019-01-23T20:46:36.514Z,93.90
2019-01-23T20:49:06.083Z,93.90
2019-01-23T20:51:35.579Z,93.90
2019-01-23T20:54:05.109Z,93.90
2019-01-23T20:56:34.625Z,94.00
2019-01-23T20:59:04.305Z,94.00
2019-01-23T21:01:33.817Z,93.90
2019-01-23T21:04:03.289Z,94.00
2019-01-23T21:06:32.783Z,93.90
2019-01-23T21:09:02.222Z,94.00
2019-01-23T21:11:31.720Z,93.90
2019-01-23T21:14:01.229Z,94.00
2019-01-23T21:16:30.652Z,94.00
2019-01-23T21:19:00.150Z,94.00
2019-01-23T21:21:29.633Z,94.00
2019-01-23T21:23:59.059Z,94.00
2019-01-23T21:26:28.555Z,94.00
2019-01-23T21:28:58.189Z,94.10
2019-01-23T21:31:27.543Z,93.90
2019-01-23T21:33:57.005Z,94.00
2019-01-23T21:36:26.441Z,94.00
2019-01-23T21:38:55.902Z,94.00
2019-01-23T21:41:25.305Z,94.00
2019-01-23T21:43:54.728Z,94.10
2019-01-23T21:46:24.245Z,94.00
2019-01-23T21:48:53.605Z,93.90
2019-01-23T21:51:23.107Z,94.00
2019-01-23T21:53:52.590Z,94.00
2019-01-23T21:56:22.130Z,94.00
2019-01-23T21:58:51.599Z,94.00
2019-01-23T22:01:21.033Z,94.00
2019-01-23T22:03:50.535Z,94.10
2019-01-23T22:06:20.979Z,94.00
2019-01-23T22:08:50.413Z,94.10
2019-01-23T22:11:19.821Z,94.00
2019-01-23T22:13:49.291Z,94.00
2019-01-23T22:16:18.766Z,94.00
2019-01-23T22:18:48.280Z,94.00
2019-01-23T22:21:17.705Z,94.00
2019-01-23T22:23:47.245Z,94.00
2019-01-23T22:26:18.671Z,94.10
2019-01-23T22:28:48.284Z,94.00
2019-01-23T22:31:17.869Z,94.00
2019-01-23T22:33:47.339Z,94.00
2019-01-23T22:36:16.893Z,94.00
2019-01-23T22:38:46.357Z,94.00
2019-01-23T22:41:15.885Z,94.00
2019-01-23T22:43:45.348Z,94.10
2019-01-23T22:46:14.779Z,94.10
2019-01-23T22:48:44.266Z,94.10
2019-01-23T22:51:13.747Z,94.00
2019-01-23T22:53:43.138Z,94.10
2019-01-23T22:56:12.574Z,94.10
2019-01-23T22:58:42.063Z,94.10
2019-01-23T23:01:14.645Z,94.10
2019-01-23T23:03:44.185Z,94.00
2019-01-23T23:06:13.615Z,93.90
2019-01-23T23:08:43.010Z,93.90
2019-01-23T23:11:12.507Z,94.00
2019-01-23T23:13:41.988Z,94.00
2019-01-23T23:16:11.476Z,94.10
2019-01-23T23:18:41.029Z,94.00
2019-01-23T23:21:10.534Z,94.00
2019-01-23T23:23:40.003Z,94.00
2019-01-23T23:26:09.415Z,94.00
2019-01-23T23:28:38.995Z,93.80
2019-01-23T23:31:08.499Z,93.90
2019-01-23T23:33:38.855Z,94.00
2019-01-23T23:36:08.389Z,93.90
2019-01-23T23:38:37.945Z,93.80
2019-01-23T23:41:07.491Z,94.00
2019-01-23T23:43:36.977Z,94.00
2019-01-23T23:46:06.407Z,94.00
2019-01-23T23:48:35.915Z,94.10
2019-01-23T23:51:05.427Z,94.00
2019-01-23T23:53:34.909Z,93.90
2019-01-23T23:56:04.614Z,93.90
2019-01-23T23:58:34.057Z,93.90
